Flugplatz Hohn Airport

Bericht für ETNH

vom 17.09. um 14:20 UTC

Wind 18 kt aus 310° in Böen 28 kt

Sichtweite 10 km oder mehr

Code: VCSH

gering bewölkt in 3000 ft

Temperatur 13.0°C

Taupunkt 5.0°C

Luftfeuchtigkeit 58%

Luftdruck 1013 hPa

ETNH 171420Z 31018G28KT 9999 VCSH FEW030CB 13/05 Q1013 BLU+BLU+ TEMPO GRN

Prognose für ETNH

vom 17.09. um 00:00 UTC

Zwischen 00:00 UTC und 00:00 UTC

Wind 20 kt aus 290° in Böen 30 kt

Sichtweite 10 km oder mehr

keine signifikanten Wettererscheinungen

gering bewölkt in 2000 ft

aufgebrochene Bewölkung in 5000 ft


Zwischen 00:00 UTC und 00:00 UTC zeitweise

Wind 25 kt aus 320° in Böen 42 kt

Sichtweite 4000 m

Regenschauer

aufgebrochene Bewölkung in 2000 ft


Zwischen 00:00 UTC und 00:00 UTC zeitweise

Wind 15 kt aus 300° in Böen 25 kt

Sichtweite 8000 m

keine signifikanten Wettererscheinungen

aufgebrochene Bewölkung in 2000 ft


Zwischen 00:00 und 00:00 UTC übergehend zu

Wind 10 kt aus 280° in Böen 22 kt

Sichtweite 10 km oder mehr

keine signifikanten Wettererscheinungen

gering bewölkt in 2000 ft

aufgelockert bewölkt in 5000 ft

TAF ETNH 171000Z 1711/1723 29020G30KT 9999 NSW FEW020 BKN050 TEMPO 1711/1717 32025G42KT 4000 SHRA BKN020CB TEMPO 1717/1719 30015G25KT 8000 NSW BKN020 BECMG 1719/1721 28010G22KT 9999 NSW FEW020 SCT050 BY ETGL
Impressum